Time;durP1;ratioP1;P1;durP2;ratioP2;P2;SDS_P1;SDS_P2;PMS_P1;PMS_P2;Temp;Humidity;BMP_temperature;BMP_pressure;BME280_temperature;BME280_humidity;BME280_pressure;Samples;Min_cycle;Max_cycle;Signal;HPM_P1;HPM_P2
2022/10/30 00:01:04;;;;;;;3.83;2.60;;;;;;;18.31;59.74;102025.19;1747469;81;21034;-50
2022/10/30 00:03:31;;;;;;;4.75;3.00;;;;;;;18.30;59.71;102021.69;1752623;82;21034;-51
2022/10/30 00:05:58;;;;;;;4.30;2.70;;;;;;;18.32;59.80;102019.02;1747572;81;21561;-50
2022/10/30 00:08:25;;;;;;;4.12;3.20;;;;;;;18.31;59.81;102020.79;1751278;81;21085;-50
2022/10/30 00:10:52;;;;;;;2.55;2.35;;;;;;;18.31;59.82;102006.75;1750672;81;21514;-50
2022/10/30 00:13:21;;;;;;;4.25;2.58;;;;;;;18.30;59.88;101999.77;1753257;82;21575;-50
2022/10/30 00:15:52;;;;;;;3.90;2.65;;;;;;;18.29;59.91;101990.13;1752196;81;21034;-50
2022/10/30 00:18:19;;;;;;;4.22;2.92;;;;;;;18.26;59.95;101984.98;1746191;81;21038;-50
2022/10/30 00:20:46;;;;;;;4.78;3.37;;;;;;;18.25;59.98;101986.75;1745498;81;21226;-50
2022/10/30 00:23:13;;;;;;;3.83;2.87;;;;;;;18.27;59.97;101993.27;1752845;82;21053;-50
2022/10/30 00:25:41;;;;;;;3.62;3.20;;;;;;;18.26;60.04;101998.16;1750572;81;21046;-50
2022/10/30 00:28:08;;;;;;;3.08;2.60;;;;;;;18.27;60.04;101998.09;1748148;81;21038;-50
2022/10/30 00:30:35;;;;;;;4.17;2.50;;;;;;;18.28;60.10;101988.42;1752725;80;21490;-51
2022/10/30 00:33:02;;;;;;;4.87;3.05;;;;;;;18.28;60.11;101991.89;1774902;80;21014;-51
2022/10/30 00:35:30;;;;;;;4.28;2.60;;;;;;;18.29;60.10;101982.22;1752278;80;21006;-50
2022/10/30 00:37:57;;;;;;;3.50;2.90;;;;;;;18.29;60.09;101978.27;1756053;80;21049;-50
2022/10/30 00:40:24;;;;;;;4.35;2.83;;;;;;;18.30;60.04;101978.69;1761098;80;21042;-50
2022/10/30 00:42:50;;;;;;;4.37;3.10;;;;;;;18.30;60.05;101987.43;1755007;80;21636;-50
2022/10/30 00:45:18;;;;;;;3.02;2.70;;;;;;;18.30;60.04;101981.33;1769921;80;21054;-50
2022/10/30 00:47:53;;;;;;;3.35;3.02;;;;;;;18.31;60.01;101992.25;1768106;80;21541;-50
2022/10/30 00:50:25;;;;;;;3.10;2.83;;;;;;;18.32;60.01;101974.23;1760472;80;21015;-50
2022/10/30 00:53:02;;;;;;;2.95;2.60;;;;;;;18.32;60.02;101974.23;1768898;80;21524;-51
2022/10/30 00:55:33;;;;;;;2.65;2.45;;;;;;;18.31;60.01;101967.22;1761533;80;21553;-51
2022/10/30 00:58:02;;;;;;;4.58;3.45;;;;;;;18.32;59.99;101974.23;1693085;83;21132;-50
2022/10/30 01:00:30;;;;;;;4.03;3.42;;;;;;;18.33;59.99;101965.39;1688226;84;20999;-50
2022/10/30 01:02:57;;;;;;;4.78;3.52;;;;;;;18.33;59.95;101971.98;1679399;84;21090;-50
2022/10/30 01:05:26;;;;;;;4.40;3.17;;;;;;;18.35;59.86;101968.83;1692492;83;21046;-50
2022/10/30 01:07:53;;;;;;;4.85;3.45;;;;;;;18.35;59.84;101972.34;1669647;84;21049;-50
2022/10/30 01:10:20;;;;;;;3.75;3.33;;;;;;;18.35;59.86;101967.06;1688437;83;21525;-50
2022/10/30 01:12:50;;;;;;;3.83;3.00;;;;;;;18.37;59.80;101974.91;1687320;84;21528;-50
2022/10/30 01:15:17;;;;;;;4.28;3.85;;;;;;;18.35;59.76;101970.16;1678078;84;21596;-50
2022/10/30 01:18:23;;;;;;;4.03;3.17;;;;;;;18.35;59.73;101968.83;1677176;84;21073;-50
2022/10/30 01:21:05;;;;;;;4.10;3.35;;;;;;;18.36;59.63;101967.94;1682556;84;21039;-50
2022/10/30 01:23:48;;;;;;;3.30;3.00;;;;;;;18.36;59.53;101974.53;1620265;87;21077;-50
2022/10/30 01:26:32;;;;;;;4.75;3.37;;;;;;;18.36;59.41;101978.48;1626692;86;21536;-50
2022/10/30 01:29:06;;;;;;;5.95;3.40;;;;;;;18.35;59.26;101965.75;1618088;86;21069;-50
2022/10/30 01:32:15;;;;;;;4.28;3.10;;;;;;;18.35;59.22;101974.97;1617801;86;21128;-50
2022/10/30 01:34:56;;;;;;;4.37;3.25;;;;;;;18.36;59.15;101981.11;1616684;87;21054;-50
2022/10/30 01:37:47;;;;;;;4.17;2.85;;;;;;;18.35;59.01;101979.37;1616212;87;22301;-50
2022/10/30 01:40:16;;;;;;;3.45;3.15;;;;;;;18.35;58.90;101997.38;1627032;88;21033;-50
2022/10/30 01:42:53;;;;;;;7.03;3.75;;;;;;;18.35;58.79;102001.77;1633440;86;21169;-50
2022/10/30 01:45:39;;;;;;;3.85;3.33;;;;;;;18.35;58.64;101998.69;1637908;86;21043;-50
2022/10/30 01:48:47;;;;;;;4.42;3.22;;;;;;;18.34;58.59;101993.48;1648665;85;21670;-50
2022/10/30 01:51:45;;;;;;;4.45;3.83;;;;;;;18.35;58.44;101993.87;1661212;85;21070;-50
2022/10/30 01:54:37;;;;;;;3.80;3.50;;;;;;;18.34;58.28;101994.31;1581975;89;21574;-50
2022/10/30 01:57:33;;;;;;;5.45;3.22;;;;;;;18.34;57.90;101996.12;1597996;86;21107;-50
2022/10/30 02:00:09;;;;;;;4.83;3.30;;;;;;;18.32;57.72;101995.31;1561701;88;21115;-50
2022/10/30 02:02:43;;;;;;;3.42;3.12;;;;;;;18.31;57.47;101997.52;1581106;89;21569;-50
2022/10/30 02:05:13;;;;;;;4.83;3.17;;;;;;;18.30;57.27;101990.55;1575088;89;21152;-50
2022/10/30 02:07:40;;;;;;;5.05;3.50;;;;;;;18.28;57.11;101983.16;1557396;91;21102;-50
2022/10/30 02:10:10;;;;;;;3.90;3.50;;;;;;;18.26;56.99;101981.86;1566996;89;21664;-50
2022/10/30 02:12:36;;;;;;;3.60;3.30;;;;;;;18.25;56.89;101974.02;1588676;89;21041;-50
2022/10/30 02:15:06;;;;;;;5.47;3.60;;;;;;;18.23;56.77;101967.50;1558960;90;21067;-51
2022/10/30 02:17:34;;;;;;;3.50;3.10;;;;;;;18.18;56.87;101966.77;1580480;90;21592;-50
2022/10/30 02:20:00;;;;;;;4.70;3.40;;;;;;;18.21;56.67;101962.73;1587050;89;21096;-50
2022/10/30 02:22:30;;;;;;;3.70;3.30;;;;;;;18.11;56.97;101963.09;1579060;89;21627;-51
2022/10/30 02:24:56;;;;;;;4.00;3.62;;;;;;;18.19;56.75;101952.70;1576237;89;21115;-50
2022/10/30 02:27:24;;;;;;;3.52;3.15;;;;;;;18.19;56.61;101936.03;1580117;89;21053;-50
2022/10/30 02:29:51;;;;;;;4.67;3.72;;;;;;;18.19;56.62;101960.61;1569892;89;21090;-50
2022/10/30 02:32:18;;;;;;;5.10;3.62;;;;;;;18.19;56.59;101954.47;1607015;88;21073;-50
2022/10/30 02:34:45;;;;;;;4.67;4.00;;;;;;;18.18;56.59;101957.55;1585151;88;21099;-50
2022/10/30 02:37:13;;;;;;;4.22;3.50;;;;;;;18.17;56.59;101953.66;1594849;89;21042;-50
2022/10/30 02:39:40;;;;;;;4.12;3.72;;;;;;;18.10;56.77;101955.64;1629513;87;21034;-50
2022/10/30 02:42:07;;;;;;;4.87;3.72;;;;;;;18.13;56.71;101941.06;1627386;86;21158;-50
2022/10/30 02:44:34;;;;;;;4.50;4.10;;;;;;;18.15;56.66;101939.69;1629771;87;21074;-51
2022/10/30 02:47:02;;;;;;;4.03;3.72;;;;;;;18.14;56.60;101945.84;1637173;86;21615;-50
2022/10/30 02:49:29;;;;;;;4.40;3.80;;;;;;;18.14;56.46;101937.95;1638755;86;21039;-50
2022/10/30 02:51:56;;;;;;;4.65;4.25;;;;;;;18.14;56.43;101931.36;1628972;87;21080;-50
2022/10/30 02:54:24;;;;;;;4.55;4.10;;;;;;;18.12;56.43;101935.37;1656550;84;21042;-50
2022/10/30 02:56:51;;;;;;;4.22;3.80;;;;;;;18.13;56.38;101941.52;1666789;85;21053;-50
2022/10/30 02:59:19;;;;;;;5.47;4.45;;;;;;;18.11;56.38;101934.12;1686565;83;21010;-50
2022/10/30 03:01:48;;;;;;;4.30;3.90;;;;;;;18.11;56.36;101933.67;1752788;80;21076;-50
2022/10/30 03:04:15;;;;;;;5.22;4.65;;;;;;;18.10;56.33;101935.88;1751336;80;21494;-51
2022/10/30 03:06:43;;;;;;;5.75;4.65;;;;;;;18.11;56.29;101942.89;1751004;80;21105;-50
2022/10/30 03:09:09;;;;;;;5.97;4.47;;;;;;;18.14;56.15;101941.90;1782915;80;21061;-50
2022/10/30 03:11:37;;;;;;;5.85;4.62;;;;;;;18.13;56.14;101944.14;1764453;80;21116;-51
2022/10/30 03:14:04;;;;;;;5.42;4.92;;;;;;;18.11;56.18;101938.07;1750144;80;21468;-50
2022/10/30 03:16:32;;;;;;;6.70;5.40;;;;;;;18.08;56.29;101943.42;1761570;80;21030;-51
2022/10/30 03:19:00;;;;;;;6.45;5.62;;;;;;;18.07;56.33;101936.45;1753310;81;21007;-50
2022/10/30 03:21:27;;;;;;;6.40;5.80;;;;;;;18.06;56.31;101936.03;1750988;80;21517;-50
2022/10/30 03:23:54;;;;;;;8.38;7.12;;;;;;;18.07;56.22;101939.09;1750896;80;21037;-50
2022/10/30 03:26:21;;;;;;;9.03;7.42;;;;;;;18.04;56.22;101942.67;1751238;81;21084;-50
2022/10/30 03:28:49;;;;;;;10.30;8.13;;;;;;;18.02;56.24;101939.69;1760319;80;21027;-50
2022/10/30 03:31:17;;;;;;;8.70;7.75;;;;;;;17.99;56.21;101931.42;1761749;80;20995;-50
2022/10/30 03:33:46;;;;;;;11.10;8.20;;;;;;;17.98;56.24;101932.80;1756157;80;21019;-50
2022/10/30 03:36:13;;;;;;;10.85;8.20;;;;;;;17.96;56.25;101925.41;1754211;80;21073;-50
2022/10/30 03:38:42;;;;;;;9.25;7.60;;;;;;;17.93;56.26;101928.16;1758787;80;21540;-50
2022/10/30 03:41:09;;;;;;;11.25;9.05;;;;;;;17.93;56.29;101928.16;1756749;80;21050;-50
2022/10/30 03:43:37;;;;;;;11.22;8.30;;;;;;;17.89;56.27;101925.62;1755470;81;21086;-50
2022/10/30 03:46:05;;;;;;;11.90;8.70;;;;;;;17.84;56.45;101920.98;1749167;81;21519;-50
2022/10/30 03:48:34;;;;;;;14.85;8.88;;;;;;;17.83;56.51;101916.61;1762058;80;21022;-50
2022/10/30 03:51:01;;;;;;;11.12;9.33;;;;;;;17.81;56.52;101918.43;1757782;80;21077;-50
2022/10/30 03:53:29;;;;;;;9.78;7.85;;;;;;;17.80;56.54;101919.33;1745850;80;21017;-50
2022/10/30 03:55:58;;;;;;;11.93;8.60;;;;;;;17.80;56.53;101913.22;1747107;80;21541;-50
2022/10/30 03:58:27;;;;;;;10.25;8.58;;;;;;;17.78;56.55;101913.25;1758972;80;21073;-50
2022/10/30 04:01:05;;;;;;;10.50;8.08;;;;;;;17.78;56.60;101917.20;1749166;80;20978;-50
2022/10/30 04:03:34;;;;;;;10.70;7.55;;;;;;;17.77;56.56;101908.91;1771949;80;21026;-50
2022/10/30 04:06:01;;;;;;;12.03;7.83;;;;;;;17.76;56.55;101899.28;1752786;80;21069;-50
2022/10/30 04:08:28;;;;;;;9.70;7.50;;;;;;;17.75;56.57;101897.58;1769857;80;21046;-50
2022/10/30 04:10:56;;;;;;;8.23;6.78;;;;;;;17.74;56.58;101905.05;1752550;80;21025;-50
2022/10/30 04:13:25;;;;;;;11.75;7.70;;;;;;;17.75;56.50;101903.28;1753501;80;21010;-50
2022/10/30 04:15:52;;;;;;;7.90;7.10;;;;;;;17.67;56.58;101903.55;1757362;80;21069;-50
2022/10/30 04:18:21;;;;;;;8.88;7.15;;;;;;;17.63;56.72;101908.52;1763273;80;21133;-50
2022/10/30 04:20:49;;;;;;;8.40;7.08;;;;;;;17.64;56.73;101904.12;1754360;80;21139;-50
2022/10/30 04:23:18;;;;;;;8.28;7.40;;;;;;;17.73;56.44;101911.24;1759548;80;21089;-50
2022/10/30 04:25:45;;;;;;;7.92;6.85;;;;;;;17.65;56.69;101904.50;1765632;80;21006;-50
2022/10/30 04:28:12;;;;;;;8.43;7.45;;;;;;;17.68;56.58;101893.41;1768019;80;21007;-50
2022/10/30 04:30:39;;;;;;;10.55;6.83;;;;;;;17.73;56.44;101900.72;1754735;81;21581;-50
2022/10/30 04:33:10;;;;;;;7.35;6.62;;;;;;;17.74;56.36;101899.78;1750720;80;21053;-50
2022/10/30 04:35:38;;;;;;;7.10;6.35;;;;;;;17.73;56.32;101898.53;1769191;80;21076;-50
2022/10/30 04:38:13;;;;;;;9.18;6.55;;;;;;;17.73;56.31;101895.45;1751189;81;21046;-50
2022/10/30 04:40:42;;;;;;;7.35;6.55;;;;;;;17.73;56.26;101892.81;1756553;80;21039;-50
2022/10/30 04:43:10;;;;;;;8.88;6.35;;;;;;;17.62;56.51;101887.03;1770208;80;21110;-51
2022/10/30 04:45:37;;;;;;;7.62;6.65;;;;;;;17.61;56.50;101891.91;1758415;80;21066;-50
2022/10/30 04:48:15;;;;;;;6.75;6.03;;;;;;;17.61;56.55;101893.67;1755533;80;21066;-51
2022/10/30 04:50:43;;;;;;;7.50;6.10;;;;;;;17.60;56.38;101887.54;1753975;80;21058;-50
2022/10/30 04:53:16;;;;;;;7.25;5.78;;;;;;;17.60;56.40;101888.86;1768613;80;21061;-50
2022/10/30 04:55:45;;;;;;;8.38;6.55;;;;;;;17.59;56.37;101879.70;1750191;80;21035;-50
2022/10/30 04:58:12;;;;;;;7.42;6.50;;;;;;;17.57;56.36;101890.29;1751053;80;21047;-50
2022/10/30 05:00:41;;;;;;;7.67;6.62;;;;;;;17.59;56.31;101891.55;1752584;80;21046;-50
2022/10/30 05:03:22;;;;;;;7.72;6.35;;;;;;;17.59;56.31;101888.47;1753611;80;21062;-50
2022/10/30 05:06:02;;;;;;;7.20;6.30;;;;;;;17.58;56.24;101891.99;1734713;80;21486;-50
2022/10/30 05:08:30;;;;;;;7.70;6.22;;;;;;;17.57;56.20;101886.34;1705557;83;21080;-50
2022/10/30 05:10:59;;;;;;;7.92;7.12;;;;;;;17.57;56.17;101887.66;1682931;83;21017;-51
2022/10/30 05:13:25;;;;;;;6.72;6.05;;;;;;;17.59;56.01;101884.52;1696408;83;21115;-50
2022/10/30 05:15:54;;;;;;;6.78;5.95;;;;;;;17.67;55.66;101888.20;1715583;83;21041;-50
2022/10/30 05:18:21;;;;;;;7.53;6.15;;;;;;;17.58;55.90;101890.67;1690902;83;21035;-50
2022/10/30 05:20:48;;;;;;;6.17;5.58;;;;;;;17.61;55.83;101891.91;1700202;83;21011;-50
2022/10/30 05:23:16;;;;;;;7.30;6.15;;;;;;;17.63;55.68;101891.40;1707876;83;21203;-50
2022/10/30 05:25:44;;;;;;;7.15;6.35;;;;;;;17.63;55.54;101890.09;1700653;83;21664;-50
2022/10/30 05:28:11;;;;;;;6.42;5.78;;;;;;;17.67;55.49;101893.47;1697776;83;21032;-50
2022/10/30 05:30:40;;;;;;;6.50;5.70;;;;;;;17.70;55.38;101899.48;1707969;83;21491;-50
2022/10/30 05:33:10;;;;;;;8.20;6.10;;;;;;;17.72;55.25;101897.66;1686648;83;21059;-52
2022/10/30 05:35:38;;;;;;;6.78;6.05;;;;;;;17.75;55.15;101893.63;1694964;83;21095;-50
2022/10/30 05:38:06;;;;;;;6.83;6.12;;;;;;;17.77;55.14;101901.46;1708049;83;21062;-50
2022/10/30 05:40:33;;;;;;;9.15;6.70;;;;;;;17.77;55.05;101893.12;1709856;83;21827;-50
2022/10/30 05:43:01;;;;;;;6.60;5.85;;;;;;;17.78;55.07;101894.82;1700819;83;21573;-50
2022/10/30 05:45:29;;;;;;;8.65;5.83;;;;;;;17.79;55.00;101897.87;1720306;81;21522;-51
2022/10/30 05:47:58;;;;;;;8.20;6.00;;;;;;;17.81;54.82;101902.63;1762821;80;21050;-50
2022/10/30 05:50:25;;;;;;;6.42;5.65;;;;;;;17.82;54.77;101905.69;1752086;80;21567;-50
2022/10/30 05:53:01;;;;;;;6.22;5.62;;;;;;;17.84;54.72;101911.76;1747945;80;21091;-50
2022/10/30 05:55:28;;;;;;;7.20;5.70;;;;;;;17.84;54.75;101906.49;1712931;83;21038;-50
2022/10/30 05:58:09;;;;;;;12.28;5.80;;;;;;;17.85;54.72;101909.52;1704920;82;21113;-50
2022/10/30 06:00:39;;;;;;;6.22;5.62;;;;;;;17.88;54.71;101905.48;1706728;81;21049;-50
2022/10/30 06:03:11;;;;;;;9.10;6.40;;;;;;;17.92;54.56;101907.98;1722143;81;21060;-50
2022/10/30 06:05:44;;;;;;;6.62;6.03;;;;;;;17.94;54.48;101906.16;1704655;81;21037;-50
2022/10/30 06:08:11;;;;;;;7.50;5.75;;;;;;;17.96;54.53;101917.51;1706010;82;22649;-50
2022/10/30 06:10:40;;;;;;;6.37;5.62;;;;;;;17.98;54.50;101922.27;1716523;82;21092;-50
2022/10/30 06:13:11;;;;;;;9.25;6.28;;;;;;;18.01;54.43;101926.96;1705689;81;21117;-50
2022/10/30 06:15:44;;;;;;;6.12;5.47;;;;;;;18.04;54.42;101926.01;1703771;82;21057;-50
2022/10/30 06:18:12;;;;;;;6.37;5.75;;;;;;;18.06;54.33;101926.81;1716524;82;21059;-50
2022/10/30 06:20:41;;;;;;;8.03;5.45;;;;;;;18.11;54.26;101935.44;1715678;81;21104;-50
2022/10/30 06:23:26;;;;;;;6.50;5.83;;;;;;;18.02;54.41;101930.47;1716843;81;21101;-51
2022/10/30 06:25:55;;;;;;;7.47;6.00;;;;;;;18.07;54.37;101927.23;1673915;84;21107;-50
2022/10/30 06:28:24;;;;;;;8.10;6.10;;;;;;;18.07;54.49;101929.87;1604277;88;21117;-50
2022/10/30 06:30:54;;;;;;;7.28;6.28;;;;;;;18.24;54.11;101926.17;1603007;88;21224;-50
2022/10/30 06:33:21;;;;;;;7.22;6.20;;;;;;;18.18;54.28;101926.39;1610896;88;21057;-50
2022/10/30 06:35:50;;;;;;;7.60;6.15;;;;;;;18.23;54.11;101919.20;1603360;88;21558;-50
2022/10/30 06:38:18;;;;;;;9.40;6.03;;;;;;;18.37;53.77;101912.98;1609423;88;21081;-50
2022/10/30 06:40:48;;;;;;;6.90;6.20;;;;;;;18.45;53.54;101912.28;1607794;88;21150;-50
2022/10/30 06:43:19;;;;;;;6.78;5.90;;;;;;;18.51;53.37;101913.38;1597791;88;21106;-50
2022/10/30 06:45:49;;;;;;;7.42;6.08;;;;;;;18.54;53.21;101912.83;1605583;88;21667;-50
2022/10/30 06:48:17;;;;;;;7.03;6.25;;;;;;;18.60;53.07;101913.92;1579505;89;21153;-50
2022/10/30 06:50:49;;;;;;;8.70;6.55;;;;;;;18.63;53.00;101909.84;1599539;88;21062;-50
2022/10/30 06:53:15;;;;;;;6.85;6.25;;;;;;;18.60;53.07;101909.10;1574215;89;21155;-50
2022/10/30 06:55:43;;;;;;;7.12;6.42;;;;;;;18.64;52.88;101905.44;1584818;89;21131;-51
2022/10/30 06:58:24;;;;;;;6.03;5.43;;;;;;;18.56;53.13;101906.18;1567802;89;21126;-50
2022/10/30 07:01:05;;;;;;;7.25;5.83;;;;;;;18.68;52.85;101899.13;1580552;89;21085;-50
2022/10/30 07:03:50;;;;;;;7.05;6.30;;;;;;;18.70;52.82;101892.02;1582279;89;22827;-50
2022/10/30 07:06:18;;;;;;;6.67;6.08;;;;;;;18.73;52.76;101893.25;1638563;84;21060;-50
2022/10/30 07:08:46;;;;;;;8.95;6.15;;;;;;;18.75;52.71;101892.73;1660266;84;21066;-50
2022/10/30 07:11:13;;;;;;;7.12;5.97;;;;;;;18.79;52.79;101886.42;1650986;85;21048;-50
2022/10/30 07:13:54;;;;;;;6.55;5.92;;;;;;;18.83;52.68;101882.75;1594851;88;21192;-50
2022/10/30 07:16:36;;;;;;;7.55;5.75;;;;;;;18.86;52.59;101878.66;1599039;88;21568;-50
2022/10/30 07:19:04;;;;;;;6.87;5.80;;;;;;;18.88;52.49;101875.50;1595814;88;21070;-51
2022/10/30 07:21:33;;;;;;;6.60;6.00;;;;;;;18.93;52.37;101877.97;1592587;88;21127;-50
2022/10/30 07:24:02;;;;;;;7.60;6.03;;;;;;;18.85;52.62;101875.64;1595313;88;21164;-50
2022/10/30 07:26:32;;;;;;;14.23;6.47;;;;;;;18.87;52.68;101879.08;1567562;91;21580;-50
2022/10/30 07:29:01;;;;;;;8.25;6.10;;;;;;;18.92;52.72;101886.34;1566001;90;21080;-50
2022/10/30 07:31:42;;;;;;;6.75;6.05;;;;;;;18.93;52.77;101876.20;1538367;93;21572;-49
2022/10/30 07:34:09;;;;;;;7.78;5.83;;;;;;;18.95;52.65;101877.00;1541933;92;21120;-50
2022/10/30 07:36:43;;;;;;;6.78;6.15;;;;;;;18.96;52.65;101870.80;1513732;94;21104;-50
2022/10/30 07:39:12;;;;;;;7.65;6.30;;;;;;;18.99;52.67;101870.69;1488588;96;21148;-50
2022/10/30 07:41:49;;;;;;;8.13;6.15;;;;;;;19.03;52.65;101873.61;1468307;96;21130;-50
2022/10/30 07:44:34;;;;;;;8.83;6.40;;;;;;;19.08;52.58;101869.47;1466617;97;21171;-51
2022/10/30 07:47:06;;;;;;;;;;;;;;;19.13;52.38;101865.72;1457970;96;21156;-50
2022/10/30 07:49:46;;;;;;;8.50;6.42;;;;;;;19.18;52.10;101869.05;1465420;96;20127;-50
2022/10/30 07:52:14;;;;;;;8.88;6.50;;;;;;;19.22;52.07;101861.41;1460578;97;21188;-50
2022/10/30 07:54:41;;;;;;;8.28;6.90;;;;;;;19.29;52.17;101872.11;1460264;97;21097;-50
2022/10/30 07:57:26;;;;;;;8.13;6.55;;;;;;;19.39;52.16;101866.05;1463887;96;21204;-50
2022/10/30 08:00:09;;;;;;;8.30;6.42;;;;;;;19.52;52.05;101866.38;1457224;96;21131;-50
2022/10/30 08:02:40;;;;;;;7.60;6.67;;;;;;;19.63;51.98;101865.48;1464481;96;21131;-51
2022/10/30 08:05:08;;;;;;;9.63;6.85;;;;;;;19.72;51.77;101859.84;1402980;101;21184;-50
2022/10/30 08:07:38;;;;;;;7.62;6.60;;;;;;;19.80;51.52;101868.30;1398225;101;21655;-50
2022/10/30 08:10:07;;;;;;;10.93;7.12;;;;;;;19.87;51.34;101869.73;1371264;104;21181;-50
2022/10/30 08:12:34;;;;;;;9.93;6.33;;;;;;;19.92;51.09;101872.59;1361806;104;21130;-50
2022/10/30 08:15:00;;;;;;;10.72;7.22;;;;;;;19.98;51.07;101867.50;1414819;100;21149;-50
2022/10/30 08:17:29;;;;;;;9.15;7.00;;;;;;;20.01;50.83;101862.94;1441421;98;21130;-50
2022/10/30 08:19:57;;;;;;;9.90;7.28;;;;;;;20.06;50.85;101860.97;1528343;92;21103;-50
2022/10/30 08:22:25;;;;;;;11.15;7.10;;;;;;;20.12;50.82;101866.44;1540640;89;21066;-50
2022/10/30 08:24:55;;;;;;;7.60;6.80;;;;;;;20.26;50.53;101866.72;1589721;89;21112;-50
2022/10/30 08:27:22;;;;;;;7.47;6.67;;;;;;;20.32;50.40;101864.29;1601650;89;21078;-50
2022/10/30 08:29:49;;;;;;;9.53;6.83;;;;;;;20.35;50.38;101862.36;1593514;89;21081;-50
2022/10/30 08:32:17;;;;;;;10.45;6.72;;;;;;;20.39;50.56;101859.97;1568947;89;21467;-50
2022/10/30 08:35:02;;;;;;;9.78;7.25;;;;;;;20.42;50.64;101857.20;1600826;87;21117;-50
2022/10/30 08:37:29;;;;;;;12.35;7.17;;;;;;;20.48;50.65;101858.25;1613052;87;21049;-50
2022/10/30 08:39:56;;;;;;;9.05;6.62;;;;;;;20.56;50.51;101854.79;1620647;86;21074;-50
2022/10/30 08:42:31;;;;;;;8.73;6.97;;;;;;;20.61;50.36;101840.88;1671648;81;21031;-50
2022/10/30 08:44:58;;;;;;;10.82;7.58;;;;;;;20.67;50.54;101844.55;1732105;81;21566;-50
2022/10/30 08:47:33;;;;;;;9.45;7.35;;;;;;;20.73;50.53;101835.02;1734516;81;21048;-50
2022/10/30 08:50:01;;;;;;;10.18;7.67;;;;;;;20.77;50.72;101834.42;1749199;81;21479;-51
2022/10/30 08:52:29;;;;;;;8.48;6.85;;;;;;;20.83;50.75;101838.97;1742341;81;21510;-50
2022/10/30 08:54:56;;;;;;;11.00;7.12;;;;;;;20.88;50.48;101830.79;1727199;82;21019;-50
2022/10/30 08:57:26;;;;;;;8.48;6.80;;;;;;;20.91;50.23;101838.14;1737524;82;21021;-50
2022/10/30 08:59:53;;;;;;;10.55;6.62;;;;;;;20.92;50.17;101829.25;1726711;82;21040;-50
2022/10/30 09:02:31;;;;;;;7.15;6.25;;;;;;;20.97;50.22;101825.94;1706416;83;21155;-50
2022/10/30 09:05:19;;;;;;;8.55;6.45;;;;;;;21.02;50.24;101822.63;1590337;89;21058;-50
2022/10/30 09:07:57;;;;;;;9.90;6.45;;;;;;;21.11;50.16;101816.49;1586259;89;21133;-50
2022/10/30 09:10:29;;;;;;;7.75;6.85;;;;;;;21.18;50.04;101824.54;1607414;88;21180;-50
2022/10/30 09:12:58;;;;;;;9.18;6.97;;;;;;;21.25;49.91;101821.97;1571673;90;21110;-50
2022/10/30 09:15:25;;;;;;;9.35;6.87;;;;;;;21.32;49.69;101828.69;1594835;89;21103;-50
2022/10/30 09:17:56;;;;;;;10.18;6.72;;;;;;;21.37;49.39;101826.19;1625874;87;21066;-50
2022/10/30 09:20:24;;;;;;;8.38;6.37;;;;;;;21.42;49.30;101825.97;1609240;89;21566;-50
2022/10/30 09:22:52;;;;;;;9.30;6.58;;;;;;;21.45;49.19;101829.81;1635818;86;21624;-50
2022/10/30 09:25:19;;;;;;;8.00;6.05;;;;;;;21.39;49.16;101828.79;1614899;87;21070;-50
2022/10/30 09:27:49;;;;;;;7.67;6.72;;;;;;;21.46;49.08;101819.13;1591782;88;21103;-50
2022/10/30 09:30:17;;;;;;;9.58;7.22;;;;;;;21.52;49.14;101817.95;1608189;88;21081;-50
2022/10/30 09:32:57;;;;;;;8.43;6.42;;;;;;;21.58;49.07;101813.21;1598093;88;21082;-50
2022/10/30 09:35:26;;;;;;;7.95;7.03;;;;;;;21.65;48.96;101813.77;1607423;88;21074;-50
2022/10/30 09:37:54;;;;;;;9.08;6.85;;;;;;;21.74;48.81;101814.63;1600955;88;21027;-50
2022/10/30 09:40:47;;;;;;;9.30;6.83;;;;;;;21.77;48.66;101814.45;1611062;88;21630;-50
2022/10/30 09:43:38;;;;;;;12.70;6.87;;;;;;;21.83;48.53;101802.25;1668482;85;21113;-51
2022/10/30 09:46:29;;;;;;;8.28;7.08;;;;;;;21.90;48.35;101804.98;1630563;86;21081;-50
2022/10/30 09:49:26;;;;;;;9.18;6.87;;;;;;;22.00;48.26;101796.94;1720240;82;21735;-50
2022/10/30 09:52:13;;;;;;;8.35;6.75;;;;;;;22.07;48.24;101799.63;1719584;82;21080;-50
2022/10/30 09:55:10;;;;;;;9.23;7.15;;;;;;;22.11;47.77;101792.40;1699795;83;21098;-50
2022/10/30 09:57:50;;;;;;;11.40;7.15;;;;;;;22.08;47.93;101789.43;1706573;83;21069;-50
2022/10/30 10:00:36;;;;;;;8.70;6.78;;;;;;;22.03;47.97;101788.80;1692455;83;21541;-50
2022/10/30 10:03:22;;;;;;;9.43;6.85;;;;;;;21.98;47.94;101788.21;1695523;83;21058;-50
2022/10/30 10:05:57;;;;;;;10.28;7.30;;;;;;;21.92;48.13;101791.19;1581182;90;21173;-50
2022/10/30 10:08:42;;;;;;;9.55;6.70;;;;;;;21.92;48.35;101788.53;1584339;89;21082;-51
2022/10/30 10:11:24;;;;;;;8.40;6.80;;;;;;;21.94;48.44;101786.66;1587174;89;21081;-50
2022/10/30 10:13:59;;;;;;;7.78;6.53;;;;;;;21.97;48.37;101782.50;1541801;91;21157;-50
2022/10/30 10:16:30;;;;;;;8.95;7.03;;;;;;;21.96;48.14;101785.25;1542815;91;22028;-50
2022/10/30 10:19:34;;;;;;;12.75;7.45;;;;;;;21.95;48.26;101796.30;1501637;95;21138;-50
2022/10/30 10:22:02;;;;;;;7.58;6.80;;;;;;;21.89;48.44;101788.67;1497769;95;21654;-50
2022/10/30 10:24:33;;;;;;;9.58;7.33;;;;;;;21.81;48.84;101789.52;1522836;94;21076;-50
2022/10/30 10:27:21;;;;;;;9.45;7.58;;;;;;;21.82;49.01;101787.30;1524562;94;21131;-50
2022/10/30 10:30:21;;;;;;;10.82;7.08;;;;;;;21.82;49.40;101787.30;1525641;93;21095;-50
2022/10/30 10:33:17;;;;;;;10.70;7.25;;;;;;;21.75;49.60;101788.52;1523680;92;21124;-50
2022/10/30 10:36:06;;;;;;;11.22;8.38;;;;;;;21.75;49.67;101784.54;1522944;93;21121;-50
2022/10/30 10:38:59;;;;;;;9.78;7.60;;;;;;;21.79;49.30;101782.98;1528151;93;21072;-50
2022/10/30 10:41:58;;;;;;;8.25;6.97;;;;;;;21.75;49.24;101788.52;1522706;93;21596;-50
2022/10/30 10:44:51;;;;;;;9.05;7.35;;;;;;;21.67;49.08;101788.05;1523027;92;21083;-50
2022/10/30 10:47:56;;;;;;;10.30;7.75;;;;;;;21.59;49.14;101779.64;1517210;93;21147;-50
2022/10/30 10:50:37;;;;;;;10.00;7.87;;;;;;;21.53;49.34;101760.09;1523789;93;21576;-50
2022/10/30 10:53:10;;;;;;;14.15;9.88;;;;;;;21.53;49.49;101753.48;1500440;94;21711;-50
2022/10/30 10:55:38;;;;;;;14.60;11.55;;;;;;;21.51;49.58;101757.99;1496054;94;21100;-50
2022/10/30 10:58:19;;;;;;;17.35;12.47;;;;;;;21.51;49.67;101757.99;1495343;94;21228;-51
2022/10/30 11:00:45;;;;;;;13.90;9.18;;;;;;;21.54;49.72;101757.82;1506398;92;21123;-49
2022/10/30 11:03:22;;;;;;;11.30;7.62;;;;;;;21.57;49.59;101752.38;1548471;90;21089;-50
2022/10/30 11:06:20;;;;;;;11.28;7.53;;;;;;;21.56;49.40;101757.27;1550871;91;21061;-50
2022/10/30 11:08:48;;;;;;;8.65;7.40;;;;;;;21.55;49.20;101754.25;1544168;91;21126;-50
2022/10/30 11:11:15;;;;;;;9.23;7.03;;;;;;;21.54;49.08;101752.52;1617340;85;21053;-50
2022/10/30 11:13:44;;;;;;;11.83;7.87;;;;;;;21.52;49.00;101755.27;1666082;85;21106;-50
2022/10/30 11:16:31;;;;;;;10.95;7.72;;;;;;;21.51;48.83;101752.70;1660940;85;21560;-50
2022/10/30 11:19:00;;;;;;;11.33;7.37;;;;;;;21.47;48.89;101756.44;1626249;86;21082;-50
2022/10/30 11:21:29;;;;;;;12.35;7.25;;;;;;;21.34;49.42;101750.04;1625860;86;21077;-50
2022/10/30 11:23:57;;;;;;;10.15;7.50;;;;;;;21.31;49.44;101752.86;1703249;83;21049;-50
2022/10/30 11:26:27;;;;;;;11.33;7.10;;;;;;;21.18;49.70;101753.08;1687434;83;21061;-50
2022/10/30 11:28:58;;;;;;;10.07;7.23;;;;;;;21.20;49.70;101757.83;1656426;85;21561;-50
2022/10/30 11:34:21;;;;;;;11.20;7.65;;;;;;;21.17;50.48;101751.34;1612903;87;21064;-50
2022/10/30 11:36:50;;;;;;;13.22;8.40;;;;;;;21.16;50.87;101753.62;1613927;88;21105;-50
2022/10/30 11:39:23;;;;;;;10.45;7.92;;;;;;;21.13;51.14;101752.43;1617843;88;21105;-50
2022/10/30 11:42:07;;;;;;;8.85;7.00;;;;;;;21.12;51.16;101747.63;1610742;87;21105;-51
2022/10/30 11:44:43;;;;;;;10.00;7.50;;;;;;;21.12;51.40;101744.12;1583768;89;21089;-50
2022/10/30 11:47:10;;;;;;;12.55;8.13;;;;;;;21.15;51.69;101746.59;1597691;87;21124;-50
2022/10/30 11:49:46;;;;;;;10.68;7.33;;;;;;;21.19;51.56;101742.86;1578434;87;21141;-50
2022/10/30 11:52:15;;;;;;;8.45;7.42;;;;;;;21.23;51.33;101743.09;1553567;90;21659;-50